KAL1806 RKPK-RKSS
Flight info
| Callsign | KAL1806 |
|---|---|
| Flight time | 0h 47m |
| Altitude | 22000 |
| Route | KALOD Y782 BITUX Z53 BASEM Y685 GUKDO |
| Aircraft | MD11/H-SDE1E2E3FGHIJ2J3J4J5M1RWXY/LB1D1 |
Departure
| Time | 2026-05-05 12:08 |
|---|---|
| Airport | Gimhae International Airport (RKPK) |
Arrival
| Time | 2026-05-05 12:56 |
|---|---|
| Airport | Gimpo International Airport (RKSS) |
| Time | Latitude | Longitude | Altitude | Speed | Heading |
|---|---|---|---|---|---|
| 2026-05-05 11:45 | 35.16853 | 128.94743 | 24 ft | 0 kts | 203° |
| 2026-05-05 11:54 | 35.16864 | 128.94748 | 24 ft | 2 kts | 203° |
| 2026-05-05 11:54 | 35.16877 | 128.94757 | 25 ft | 2 kts | 219° |
| 2026-05-05 11:54 | 35.16887 | 128.94771 | 25 ft | 2 kts | 238° |
| 2026-05-05 11:55 | 35.16894 | 128.94786 | 26 ft | 2 kts | 255° |
| 2026-05-05 11:55 | 35.16896 | 128.94804 | 26 ft | 2 kts | 273° |
| 2026-05-05 11:55 | 35.16893 | 128.94823 | 26 ft | 1 kts | 291° |
| 2026-05-05 11:55 | 35.16891 | 128.94827 | 26 ft | 0 kts | 295° |
| 2026-05-05 11:59 | 35.16892 | 128.94826 | 26 ft | 1 kts | 295° |
| 2026-05-05 11:59 | 35.16907 | 128.94785 | 25 ft | 8 kts | 294° |
| 2026-05-05 11:59 | 35.16942 | 128.94688 | 24 ft | 15 kts | 293° |
| 2026-05-05 11:59 | 35.16981 | 128.94579 | 22 ft | 11 kts | 294° |
| 2026-05-05 12:00 | 35.17034 | 128.94505 | 23 ft | 11 kts | 337° |
| 2026-05-05 12:00 | 35.17069 | 128.94470 | 24 ft | 0 kts | 270° |
| 2026-05-05 12:00 | 35.17069 | 128.94435 | 23 ft | 7 kts | 270° |
| 2026-05-05 12:00 | 35.17078 | 128.94341 | 20 ft | 12 kts | 299° |
| 2026-05-05 12:01 | 35.17155 | 128.94298 | 24 ft | 12 kts | 355° |
| 2026-05-05 12:01 | 35.17247 | 128.94289 | 24 ft | 14 kts | 355° |
| 2026-05-05 12:01 | 35.17365 | 128.94272 | 21 ft | 19 kts | 353° |
| 2026-05-05 12:01 | 35.17516 | 128.94252 | 19 ft | 23 kts | 354° |
| 2026-05-05 12:02 | 35.17681 | 128.94232 | 20 ft | 25 kts | 354° |
| 2026-05-05 12:02 | 35.17864 | 128.94208 | 20 ft | 27 kts | 354° |
| 2026-05-05 12:02 | 35.18058 | 128.94182 | 21 ft | 28 kts | 354° |
| 2026-05-05 12:02 | 35.18271 | 128.94154 | 16 ft | 32 kts | 354° |
| 2026-05-05 12:03 | 35.18491 | 128.94125 | 20 ft | 30 kts | 353° |
| 2026-05-05 12:03 | 35.18698 | 128.94099 | 20 ft | 29 kts | 354° |
| 2026-05-05 12:03 | 35.18906 | 128.94072 | 19 ft | 31 kts | 354° |
| 2026-05-05 12:03 | 35.19096 | 128.94047 | 20 ft | 23 kts | 354° |
| 2026-05-05 12:04 | 35.19262 | 128.94028 | 15 ft | 23 kts | 354° |
| 2026-05-05 12:04 | 35.19363 | 128.94011 | 13 ft | 12 kts | 341° |
| 2026-05-05 12:04 | 35.19404 | 128.93898 | 17 ft | 0 kts | 263° |
| 2026-05-05 12:05 | 35.19403 | 128.93898 | 17 ft | 0 kts | 263° |
| 2026-05-05 12:06 | 35.19403 | 128.93893 | 18 ft | 2 kts | 263° |
| 2026-05-05 12:06 | 35.19398 | 128.93839 | 19 ft | 11 kts | 263° |
| 2026-05-05 12:06 | 35.19380 | 128.93759 | 20 ft | 8 kts | 223° |
| 2026-05-05 12:07 | 35.19334 | 128.93751 | 19 ft | 0 kts | 174° |
| 2026-05-05 12:07 | 35.19324 | 128.93753 | 19 ft | 6 kts | 174° |
| 2026-05-05 12:07 | 35.19180 | 128.93771 | 22 ft | 42 kts | 174° |
| 2026-05-05 12:07 | 35.18648 | 128.93839 | 31 ft | 108 kts | 174° |
| 2026-05-05 12:08 | 35.17700 | 128.93959 | 23 ft | 162 kts | 173° |
| 2026-05-05 12:08 | 35.16540 | 128.94098 | 432 ft | 166 kts | 178° |
| 2026-05-05 12:08 | 35.15377 | 128.94157 | 908 ft | 170 kts | 180° |
| 2026-05-05 12:08 | 35.14215 | 128.94199 | 1503 ft | 168 kts | 182° |
| 2026-05-05 12:09 | 35.13050 | 128.94197 | 2035 ft | 170 kts | 184° |
| 2026-05-05 12:09 | 35.11864 | 128.94252 | 2624 ft | 173 kts | 178° |
| 2026-05-05 12:09 | 35.10652 | 128.94348 | 3198 ft | 176 kts | 180° |
| 2026-05-05 12:09 | 35.09352 | 128.94405 | 3459 ft | 204 kts | 181° |
| 2026-05-05 12:10 | 35.07827 | 128.94467 | 3849 ft | 227 kts | 180° |
| 2026-05-05 12:10 | 35.06249 | 128.94533 | 4564 ft | 235 kts | 180° |
| 2026-05-05 12:10 | 35.04566 | 128.94585 | 4761 ft | 244 kts | 180° |
| 2026-05-05 12:10 | 35.02858 | 128.94635 | 4804 ft | 243 kts | 179° |
| 2026-05-05 12:11 | 35.01172 | 128.94974 | 4749 ft | 247 kts | 162° |
| 2026-05-05 12:11 | 34.99676 | 128.95906 | 4805 ft | 244 kts | 148° |
| 2026-05-05 12:11 | 34.98260 | 128.97072 | 4849 ft | 245 kts | 147° |
| 2026-05-05 12:11 | 34.96860 | 128.98274 | 4983 ft | 247 kts | 147° |
| 2026-05-05 12:12 | 34.95430 | 128.99486 | 4981 ft | 250 kts | 147° |
| 2026-05-05 12:12 | 34.94016 | 129.00708 | 5009 ft | 248 kts | 147° |
| 2026-05-05 12:12 | 34.92717 | 129.02125 | 4881 ft | 253 kts | 125° |
| 2026-05-05 12:12 | 34.92204 | 129.04121 | 4910 ft | 249 kts | 86° |
| 2026-05-05 12:13 | 34.92765 | 129.06067 | 4917 ft | 252 kts | 51° |
| 2026-05-05 12:13 | 34.93926 | 129.07671 | 5043 ft | 254 kts | 47° |
| 2026-05-05 12:13 | 34.95166 | 129.09274 | 5070 ft | 261 kts | 46° |
| 2026-05-05 12:13 | 34.96437 | 129.10870 | 5020 ft | 263 kts | 44° |
| 2026-05-05 12:14 | 34.97915 | 129.12135 | 4995 ft | 257 kts | 16° |
| 2026-05-05 12:14 | 34.99680 | 129.12227 | 5065 ft | 260 kts | 338° |
| 2026-05-05 12:14 | 35.01254 | 129.11168 | 5121 ft | 264 kts | 321° |
| 2026-05-05 12:14 | 35.02734 | 129.09792 | 5084 ft | 269 kts | 316° |
| 2026-05-05 12:15 | 35.04129 | 129.08249 | 5097 ft | 270 kts | 314° |
| 2026-05-05 12:15 | 35.05519 | 129.06665 | 5023 ft | 274 kts | 315° |
| 2026-05-05 12:15 | 35.06928 | 129.05122 | 4972 ft | 272 kts | 316° |
| 2026-05-05 12:15 | 35.08370 | 129.03636 | 4917 ft | 271 kts | 319° |
| 2026-05-05 12:16 | 35.09857 | 129.02225 | 4930 ft | 269 kts | 321° |
| 2026-05-05 12:16 | 35.11385 | 129.00871 | 4947 ft | 270 kts | 323° |
| 2026-05-05 12:16 | 35.12983 | 128.99655 | 5010 ft | 280 kts | 328° |
| 2026-05-05 12:16 | 35.14715 | 128.98505 | 6121 ft | 278 kts | 329° |
| 2026-05-05 12:17 | 35.16420 | 128.97426 | 7120 ft | 284 kts | 332° |
| 2026-05-05 12:17 | 35.18174 | 128.96397 | 8224 ft | 284 kts | 332° |
| 2026-05-05 12:17 | 35.19989 | 128.95380 | 9158 ft | 291 kts | 334° |
| 2026-05-05 12:17 | 35.21835 | 128.94325 | 10009 ft | 300 kts | 332° |
| 2026-05-05 12:18 | 35.23730 | 128.93204 | 10893 ft | 308 kts | 332° |
| 2026-05-05 12:18 | 35.25744 | 128.91991 | 11486 ft | 330 kts | 332° |
| 2026-05-05 12:18 | 35.27895 | 128.90692 | 11828 ft | 358 kts | 332° |
| 2026-05-05 12:18 | 35.30203 | 128.89317 | 12173 ft | 385 kts | 332° |
| 2026-05-05 12:19 | 35.32681 | 128.87860 | 12972 ft | 398 kts | 333° |
| 2026-05-05 12:19 | 35.35163 | 128.86392 | 13896 ft | 406 kts | 333° |
| 2026-05-05 12:19 | 35.37727 | 128.84871 | 14854 ft | 413 kts | 332° |
| 2026-05-05 12:19 | 35.40327 | 128.83325 | 15795 ft | 419 kts | 333° |
| 2026-05-05 12:20 | 35.42970 | 128.81760 | 16711 ft | 425 kts | 333° |
| 2026-05-05 12:20 | 35.45616 | 128.80197 | 17622 ft | 430 kts | 333° |
| 2026-05-05 12:20 | 35.48338 | 128.78589 | 18488 ft | 435 kts | 333° |
| 2026-05-05 12:20 | 35.51049 | 128.77000 | 19485 ft | 437 kts | 333° |
| 2026-05-05 12:21 | 35.53782 | 128.75365 | 20594 ft | 435 kts | 332° |
| 2026-05-05 12:21 | 35.56457 | 128.73746 | 21584 ft | 431 kts | 332° |
| 2026-05-05 12:21 | 35.59155 | 128.72125 | 21746 ft | 431 kts | 332° |
| 2026-05-05 12:21 | 35.61847 | 128.70520 | 21979 ft | 428 kts | 332° |
| 2026-05-05 12:22 | 35.64534 | 128.68919 | 22012 ft | 427 kts | 332° |
| 2026-05-05 12:22 | 35.67207 | 128.67313 | 22049 ft | 424 kts | 332° |
| 2026-05-05 12:22 | 35.69829 | 128.65738 | 22031 ft | 424 kts | 332° |
| 2026-05-05 12:22 | 35.72481 | 128.64153 | 22063 ft | 423 kts | 333° |
| 2026-05-05 12:23 | 35.75167 | 128.62550 | 22041 ft | 424 kts | 332° |
| 2026-05-05 12:23 | 35.77788 | 128.60976 | 22047 ft | 424 kts | 331° |
| 2026-05-05 12:23 | 35.80352 | 128.59161 | 22068 ft | 422 kts | 325° |
| 2026-05-05 12:23 | 35.82707 | 128.57007 | 22076 ft | 421 kts | 318° |
| 2026-05-05 12:24 | 35.84893 | 128.54561 | 22067 ft | 420 kts | 314° |
| 2026-05-05 12:24 | 35.86956 | 128.52048 | 22082 ft | 419 kts | 313° |
| 2026-05-05 12:24 | 35.89032 | 128.49484 | 22086 ft | 420 kts | 314° |
| 2026-05-05 12:24 | 35.91112 | 128.46962 | 22099 ft | 419 kts | 314° |
| 2026-05-05 12:25 | 35.93217 | 128.44467 | 22084 ft | 420 kts | 315° |
| 2026-05-05 12:25 | 35.95313 | 128.41962 | 22102 ft | 420 kts | 315° |
| 2026-05-05 12:25 | 35.97400 | 128.39455 | 22110 ft | 420 kts | 315° |
| 2026-05-05 12:25 | 35.99479 | 128.36961 | 22129 ft | 420 kts | 315° |
| 2026-05-05 12:26 | 36.01589 | 128.34438 | 22096 ft | 421 kts | 314° |
| 2026-05-05 12:26 | 36.03689 | 128.31949 | 22073 ft | 421 kts | 315° |
| 2026-05-05 12:26 | 36.05793 | 128.29440 | 22085 ft | 420 kts | 315° |
| 2026-05-05 12:26 | 36.07925 | 128.26929 | 22079 ft | 421 kts | 315° |
| 2026-05-05 12:27 | 36.10039 | 128.24469 | 22066 ft | 420 kts | 315° |
| 2026-05-05 12:27 | 36.12166 | 128.21939 | 22055 ft | 420 kts | 314° |
| 2026-05-05 12:27 | 36.14254 | 128.19485 | 22036 ft | 420 kts | 320° |
| 2026-05-05 12:27 | 36.16716 | 128.17485 | 22114 ft | 421 kts | 330° |
| 2026-05-05 12:28 | 36.19328 | 128.15834 | 22124 ft | 423 kts | 333° |
| 2026-05-05 12:28 | 36.22008 | 128.14255 | 22119 ft | 423 kts | 333° |
| 2026-05-05 12:28 | 36.24657 | 128.12705 | 22105 ft | 424 kts | 333° |
| 2026-05-05 12:28 | 36.27328 | 128.11069 | 22040 ft | 424 kts | 332° |
| 2026-05-05 12:29 | 36.29947 | 128.09395 | 22046 ft | 423 kts | 331° |
| 2026-05-05 12:29 | 36.32551 | 128.07726 | 22049 ft | 423 kts | 332° |
| 2026-05-05 12:29 | 36.35152 | 128.06064 | 22054 ft | 423 kts | 332° |
| 2026-05-05 12:29 | 36.37785 | 128.04396 | 22056 ft | 423 kts | 332° |
| 2026-05-05 12:30 | 36.40419 | 128.02733 | 22062 ft | 424 kts | 332° |
| 2026-05-05 12:30 | 36.43024 | 128.01090 | 22067 ft | 424 kts | 332° |
| 2026-05-05 12:30 | 36.45687 | 127.99412 | 22061 ft | 424 kts | 332° |
| 2026-05-05 12:30 | 36.48311 | 127.97761 | 22069 ft | 425 kts | 332° |
| 2026-05-05 12:31 | 36.50927 | 127.96101 | 22075 ft | 425 kts | 333° |
| 2026-05-05 12:31 | 36.53560 | 127.94442 | 22033 ft | 424 kts | 334° |
| 2026-05-05 12:31 | 36.56186 | 127.92815 | 21904 ft | 421 kts | 334° |
| 2026-05-05 12:31 | 36.58796 | 127.91187 | 21644 ft | 412 kts | 334° |
| 2026-05-05 12:32 | 36.61321 | 127.89589 | 21413 ft | 405 kts | 333° |
| 2026-05-05 12:32 | 36.63827 | 127.88000 | 21179 ft | 400 kts | 334° |
| 2026-05-05 12:32 | 36.66301 | 127.86448 | 20956 ft | 395 kts | 334° |
| 2026-05-05 12:32 | 36.68715 | 127.84943 | 20552 ft | 389 kts | 334° |
| 2026-05-05 12:33 | 36.71113 | 127.83437 | 20176 ft | 380 kts | 334° |
| 2026-05-05 12:33 | 36.73443 | 127.81965 | 19794 ft | 376 kts | 334° |
| 2026-05-05 12:33 | 36.75766 | 127.80505 | 19432 ft | 371 kts | 334° |
| 2026-05-05 12:33 | 36.78071 | 127.79066 | 19117 ft | 369 kts | 334° |
| 2026-05-05 12:34 | 36.80361 | 127.77631 | 18808 ft | 368 kts | 334° |
| 2026-05-05 12:34 | 36.82656 | 127.76186 | 18510 ft | 368 kts | 334° |
| 2026-05-05 12:34 | 36.84917 | 127.74764 | 18216 ft | 368 kts | 334° |
| 2026-05-05 12:34 | 36.87195 | 127.73336 | 17929 ft | 367 kts | 334° |
| 2026-05-05 12:35 | 36.89475 | 127.71911 | 17636 ft | 365 kts | 334° |
| 2026-05-05 12:35 | 36.91767 | 127.70477 | 17345 ft | 363 kts | 334° |
| 2026-05-05 12:35 | 36.93994 | 127.69060 | 17058 ft | 363 kts | 333° |
| 2026-05-05 12:35 | 36.96238 | 127.67611 | 16796 ft | 361 kts | 333° |
| 2026-05-05 12:36 | 36.98452 | 127.66194 | 16482 ft | 360 kts | 334° |
| 2026-05-05 12:36 | 37.00703 | 127.64785 | 16203 ft | 359 kts | 334° |
| 2026-05-05 12:36 | 37.02861 | 127.63239 | 15950 ft | 359 kts | 326° |
| 2026-05-05 12:36 | 37.04888 | 127.61424 | 15514 ft | 358 kts | 323° |
| 2026-05-05 12:37 | 37.06760 | 127.59404 | 15102 ft | 354 kts | 311° |
| 2026-05-05 12:37 | 37.08244 | 127.56992 | 14890 ft | 349 kts | 304° |
| 2026-05-05 12:37 | 37.09545 | 127.54449 | 14614 ft | 349 kts | 301° |
| 2026-05-05 12:37 | 37.10806 | 127.51826 | 14374 ft | 348 kts | 301° |
| 2026-05-05 12:38 | 37.12054 | 127.49226 | 14030 ft | 348 kts | 301° |
| 2026-05-05 12:38 | 37.13325 | 127.46687 | 13746 ft | 346 kts | 302° |
| 2026-05-05 12:38 | 37.14643 | 127.44145 | 13467 ft | 345 kts | 303° |
| 2026-05-05 12:38 | 37.15942 | 127.41653 | 13173 ft | 343 kts | 303° |
| 2026-05-05 12:39 | 37.17251 | 127.39136 | 12947 ft | 342 kts | 302° |
| 2026-05-05 12:39 | 37.18545 | 127.36661 | 12960 ft | 341 kts | 303° |
| 2026-05-05 12:39 | 37.19848 | 127.34176 | 12966 ft | 341 kts | 302° |
| 2026-05-05 12:39 | 37.21138 | 127.31687 | 12722 ft | 339 kts | 302° |
| 2026-05-05 12:40 | 37.22421 | 127.29198 | 12254 ft | 338 kts | 302° |
| 2026-05-05 12:40 | 37.23709 | 127.26709 | 11816 ft | 335 kts | 302° |
| 2026-05-05 12:40 | 37.24966 | 127.24292 | 11588 ft | 329 kts | 302° |
| 2026-05-05 12:40 | 37.26200 | 127.21916 | 11261 ft | 324 kts | 302° |
| 2026-05-05 12:41 | 37.27432 | 127.19545 | 10994 ft | 318 kts | 302° |
| 2026-05-05 12:41 | 37.28618 | 127.17267 | 10832 ft | 307 kts | 302° |
| 2026-05-05 12:41 | 37.29767 | 127.15065 | 10704 ft | 298 kts | 301° |
| 2026-05-05 12:41 | 37.30891 | 127.12908 | 10477 ft | 290 kts | 301° |
| 2026-05-05 12:42 | 37.31976 | 127.10826 | 10292 ft | 280 kts | 301° |
| 2026-05-05 12:42 | 37.33032 | 127.08798 | 10164 ft | 277 kts | 301° |
| 2026-05-05 12:42 | 37.34094 | 127.06761 | 9959 ft | 278 kts | 301° |
| 2026-05-05 12:42 | 37.35165 | 127.04703 | 9753 ft | 278 kts | 301° |
| 2026-05-05 12:43 | 37.36232 | 127.02654 | 9533 ft | 278 kts | 301° |
| 2026-05-05 12:43 | 37.37292 | 127.00628 | 9310 ft | 277 kts | 301° |
| 2026-05-05 12:43 | 37.38332 | 126.98635 | 9101 ft | 276 kts | 301° |
| 2026-05-05 12:43 | 37.39394 | 126.96601 | 8875 ft | 275 kts | 301° |
| 2026-05-05 12:44 | 37.40425 | 126.94617 | 8673 ft | 274 kts | 300° |
| 2026-05-05 12:44 | 37.41404 | 126.92546 | 8458 ft | 273 kts | 296° |
| 2026-05-05 12:44 | 37.42258 | 126.90403 | 8183 ft | 273 kts | 293° |
| 2026-05-05 12:44 | 37.43022 | 126.88239 | 8067 ft | 264 kts | 292° |
| 2026-05-05 12:45 | 37.43723 | 126.86167 | 8030 ft | 252 kts | 291° |
| 2026-05-05 12:45 | 37.44402 | 126.84160 | 8025 ft | 243 kts | 292° |
| 2026-05-05 12:45 | 37.45067 | 126.82247 | 8014 ft | 234 kts | 292° |
| 2026-05-05 12:45 | 37.45710 | 126.80391 | 8030 ft | 234 kts | 290° |
| 2026-05-05 12:46 | 37.46306 | 126.78460 | 7800 ft | 236 kts | 289° |
| 2026-05-05 12:46 | 37.46848 | 126.76535 | 7533 ft | 233 kts | 288° |
| 2026-05-05 12:46 | 37.47374 | 126.74603 | 7275 ft | 230 kts | 287° |
| 2026-05-05 12:46 | 37.47892 | 126.72716 | 7080 ft | 228 kts | 288° |
| 2026-05-05 12:47 | 37.48398 | 126.70841 | 7056 ft | 229 kts | 285° |
| 2026-05-05 12:47 | 37.48800 | 126.68855 | 6912 ft | 233 kts | 280° |
| 2026-05-05 12:47 | 37.49060 | 126.66882 | 6663 ft | 230 kts | 277° |
| 2026-05-05 12:47 | 37.49260 | 126.64883 | 6422 ft | 223 kts | 276° |
| 2026-05-05 12:48 | 37.49441 | 126.62984 | 6227 ft | 220 kts | 276° |
| 2026-05-05 12:48 | 37.49668 | 126.61053 | 6009 ft | 223 kts | 283° |
| 2026-05-05 12:48 | 37.50207 | 126.59254 | 5813 ft | 222 kts | 300° |
| 2026-05-05 12:48 | 37.51135 | 126.57718 | 5606 ft | 219 kts | 310° |
| 2026-05-05 12:49 | 37.52202 | 126.56388 | 5385 ft | 212 kts | 315° |
| 2026-05-05 12:49 | 37.53283 | 126.55170 | 5185 ft | 204 kts | 315° |
| 2026-05-05 12:49 | 37.54325 | 126.53996 | 5027 ft | 199 kts | 314° |
| 2026-05-05 12:49 | 37.55331 | 126.52808 | 4875 ft | 199 kts | 315° |
| 2026-05-05 12:50 | 37.56549 | 126.51905 | 4654 ft | 208 kts | 342° |
| 2026-05-05 12:50 | 37.57988 | 126.51916 | 4427 ft | 211 kts | 18° |
| 2026-05-05 12:50 | 37.59215 | 126.52929 | 4243 ft | 212 kts | 44° |
| 2026-05-05 12:50 | 37.60208 | 126.54324 | 4025 ft | 214 kts | 51° |
| 2026-05-05 12:51 | 37.61157 | 126.55759 | 3856 ft | 215 kts | 48° |
| 2026-05-05 12:51 | 37.62171 | 126.57127 | 3636 ft | 213 kts | 45° |
| 2026-05-05 12:51 | 37.63213 | 126.58448 | 3481 ft | 212 kts | 45° |
| 2026-05-05 12:51 | 37.64273 | 126.59773 | 3297 ft | 211 kts | 45° |
| 2026-05-05 12:52 | 37.65300 | 126.61100 | 3157 ft | 212 kts | 46° |
| 2026-05-05 12:52 | 37.66272 | 126.62444 | 2876 ft | 204 kts | 54° |
| 2026-05-05 12:52 | 37.66710 | 126.64036 | 2846 ft | 185 kts | 96° |
| 2026-05-05 12:52 | 37.66365 | 126.65557 | 2706 ft | 184 kts | 124° |
| 2026-05-05 12:53 | 37.65613 | 126.66829 | 2403 ft | 176 kts | 137° |
| 2026-05-05 12:53 | 37.64739 | 126.67893 | 2182 ft | 172 kts | 142° |
| 2026-05-05 12:53 | 37.63827 | 126.68908 | 1953 ft | 174 kts | 143° |
| 2026-05-05 12:53 | 37.62936 | 126.69908 | 1741 ft | 173 kts | 142° |
| 2026-05-05 12:54 | 37.61185 | 126.72018 | 1266 ft | 174 kts | 137° |
| 2026-05-05 12:54 | 37.60339 | 126.73128 | 1051 ft | 175 kts | 137° |
| 2026-05-05 12:54 | 37.59495 | 126.74229 | 800 ft | 175 kts | 138° |
| 2026-05-05 12:55 | 37.58627 | 126.75291 | 580 ft | 173 kts | 137° |
| 2026-05-05 12:55 | 37.57766 | 126.76379 | 341 ft | 175 kts | 138° |
| 2026-05-05 12:55 | 37.56901 | 126.77464 | 114 ft | 176 kts | 137° |
| 2026-05-05 12:55 | 37.56083 | 126.78489 | 65 ft | 141 kts | 134° |
| 2026-05-05 12:56 | 37.55598 | 126.79099 | 70 ft | 61 kts | 135° |
| 2026-05-05 12:56 | 37.55356 | 126.79399 | 56 ft | 48 kts | 134° |
| 2026-05-05 12:56 | 37.55110 | 126.79710 | 55 ft | 48 kts | 135° |
| 2026-05-05 12:56 | 37.54941 | 126.79925 | 59 ft | 25 kts | 135° |
| 2026-05-05 12:57 | 37.54853 | 126.80034 | 60 ft | 12 kts | 130° |
| 2026-05-05 12:57 | 37.54853 | 126.80145 | 60 ft | 14 kts | 54° |
| 2026-05-05 12:57 | 37.54927 | 126.80238 | 62 ft | 15 kts | 45° |
| 2026-05-05 12:57 | 37.55013 | 126.80345 | 61 ft | 19 kts | 45° |
| 2026-05-05 12:58 | 37.55105 | 126.80462 | 58 ft | 18 kts | 45° |
| 2026-05-05 12:58 | 37.55195 | 126.80574 | 58 ft | 16 kts | 45° |
| 2026-05-05 12:58 | 37.55251 | 126.80643 | 62 ft | 7 kts | 38° |
| 2026-05-05 12:58 | 37.55298 | 126.80650 | 64 ft | 6 kts | 334° |
| 2026-05-05 12:59 | 37.55339 | 126.80606 | 65 ft | 8 kts | 316° |
| 2026-05-05 12:59 | 37.55383 | 126.80552 | 66 ft | 9 kts | 316° |
| 2026-05-05 12:59 | 37.55418 | 126.80505 | 67 ft | 5 kts | 303° |
| 2026-05-05 13:00 | 37.55392 | 126.80418 | 65 ft | 1 kts | 226° |
| 2026-05-05 13:00 | 37.55389 | 126.80415 | 65 ft | 0 kts | 226° |